createdAt,value
2024-04-09T00:01:36.058Z,95393.31
2024-04-09T00:04:38.095Z,95392.84
2024-04-09T00:07:39.904Z,95409.13
2024-04-09T00:10:41.951Z,95403.31
2024-04-09T00:13:43.821Z,95385.94
2024-04-09T00:16:45.944Z,95388.09
2024-04-09T00:19:52.325Z,95387.63
2024-04-09T00:23:00.936Z,95377.03
2024-04-09T00:26:04.151Z,95391.06
2024-04-09T00:29:07.078Z,95314.16
2024-04-09T00:32:08.937Z,95391.06
2024-04-09T00:35:12.477Z,95367.88
2024-04-09T00:38:15.948Z,95392.47
2024-04-09T00:41:18.127Z,95366.88
2024-04-09T00:44:25.648Z,95368.47
2024-04-09T00:47:27.618Z,95336.88
2024-04-09T00:50:31.027Z,95384.47
2024-04-09T00:53:34.213Z,95389.00
2024-04-09T00:56:36.062Z,95386.34
2024-04-09T00:59:40.150Z,95386.59
2024-04-09T01:02:44.743Z,95380.78
2024-04-09T01:05:46.655Z,95385.31
2024-04-09T01:08:48.589Z,95381.28
2024-04-09T01:11:50.377Z,95381.56
2024-04-09T01:14:52.829Z,95361.38
2024-04-09T01:17:54.712Z,95379.69
2024-04-09T01:20:56.651Z,95381.56
2024-04-09T01:24:00.254Z,95393.31
2024-04-09T01:27:06.673Z,95386.13
2024-04-09T01:30:10.338Z,95367.75
2024-04-09T01:33:12.372Z,95390.16
2024-04-09T01:36:14.397Z,95390.16
2024-04-09T01:39:16.603Z,95379.03
2024-04-09T01:42:18.422Z,95378.72
2024-04-09T01:45:20.361Z,95370.34
2024-04-09T01:48:23.575Z,95381.38
2024-04-09T01:51:25.529Z,95373.69
2024-04-09T01:54:27.378Z,95369.75
2024-04-09T01:57:33.039Z,95367.56
2024-04-09T02:00:36.766Z,95367.56
2024-04-09T02:03:42.416Z,95361.25
2024-04-09T02:06:45.309Z,95361.47
2024-04-09T02:09:49.770Z,95374.78
2024-04-09T02:12:52.178Z,95363.63
2024-04-09T02:15:54.144Z,95349.91
2024-04-09T02:18:55.959Z,95358.31
2024-04-09T02:21:57.831Z,95364.72
2024-04-09T02:24:59.671Z,95363.13
2024-04-09T02:28:01.502Z,95367.69
2024-04-09T02:31:06.296Z,95356.22
2024-04-09T02:34:08.047Z,95348.84
2024-04-09T02:37:09.886Z,95352.28
2024-04-09T02:40:17.249Z,95361.88
2024-04-09T02:43:19.372Z,95353.09
2024-04-09T02:46:21.208Z,95352.16
2024-04-09T02:49:22.956Z,95331.53
2024-04-09T02:52:24.776Z,95359.50
2024-04-09T02:55:27.501Z,95361.63
2024-04-09T02:58:29.890Z,95273.59
2024-04-09T03:01:31.982Z,95362.44
2024-04-09T03:04:34.063Z,95359.75
2024-04-09T03:07:36.139Z,95361.63
2024-04-09T03:10:38.164Z,95364.56
2024-04-09T03:13:41.712Z,95370.72
2024-04-09T03:16:43.725Z,95374.41
2024-04-09T03:19:50.869Z,95377.25
2024-04-09T03:22:52.988Z,95361.22
2024-04-09T03:25:54.739Z,95372.81
2024-04-09T03:28:56.560Z,95367.97
2024-04-09T03:31:58.396Z,95381.78
2024-04-09T03:35:00.474Z,95390.47
2024-04-09T03:38:02.723Z,95365.47
2024-04-09T03:41:06.174Z,95373.75
2024-04-09T03:44:08.698Z,95372.97
2024-04-09T03:47:10.566Z,95379.44
2024-04-09T03:50:12.429Z,95380.38
2024-04-09T03:53:14.341Z,95387.81
2024-04-09T03:56:16.197Z,95381.13
2024-04-09T03:59:18.023Z,95393.16
2024-04-09T04:02:19.845Z,95375.22
2024-04-09T04:05:21.699Z,95394.69
2024-04-09T04:08:34.539Z,95388.84
2024-04-09T04:11:37.053Z,95374.25
2024-04-09T04:14:38.956Z,95397.56
2024-04-09T04:17:40.857Z,95395.69
2024-04-09T04:20:51.379Z,95404.47
2024-04-09T04:23:55.915Z,95400.22
2024-04-09T04:26:58.267Z,95411.00
2024-04-09T04:30:00.280Z,95400.66
2024-04-09T04:33:06.134Z,95403.59
2024-04-09T04:36:10.408Z,95400.75
2024-04-09T04:39:14.178Z,95402.06
2024-04-09T04:42:17.123Z,95405.59
2024-04-09T04:45:18.933Z,95412.25
2024-04-09T04:48:21.071Z,95407.59
2024-04-09T04:51:23.245Z,95421.69
2024-04-09T04:54:25.876Z,95417.19
2024-04-09T04:57:27.693Z,95419.84
2024-04-09T05:00:30.251Z,95417.81
2024-04-09T05:03:32.400Z,95421.03
2024-04-09T05:06:34.436Z,95424.19
2024-04-09T05:09:36.379Z,95429.00
2024-04-09T05:12:38.592Z,95421.31
2024-04-09T05:15:40.555Z,95401.03
2024-04-09T05:18:42.684Z,95419.16
2024-04-09T05:21:44.993Z,95409.50
2024-04-09T05:24:49.695Z,95418.91
2024-04-09T05:27:51.682Z,95402.94
2024-04-09T05:30:53.538Z,95422.41
2024-04-09T05:33:56.084Z,95410.41
2024-04-09T05:36:58.097Z,95412.88
2024-04-09T05:40:00.124Z,95410.72
2024-04-09T05:43:01.950Z,95407.78
2024-04-09T05:46:03.951Z,95402.72
2024-04-09T05:49:06.023Z,95405.28
2024-04-09T05:52:08.080Z,95415.59
2024-04-09T05:55:10.616Z,95407.91
2024-04-09T05:58:12.841Z,95414.00
2024-04-09T06:01:16.142Z,95407.72
2024-04-09T06:04:18.507Z,95371.66
2024-04-09T06:07:21.383Z,95410.13
2024-04-09T06:10:23.703Z,95411.03
2024-04-09T06:13:25.941Z,95385.09
2024-04-09T06:16:27.846Z,95414.72
2024-04-09T06:19:29.961Z,95410.13
2024-04-09T06:22:32.001Z,95412.09
2024-04-09T06:25:35.272Z,95416.78
2024-04-09T06:28:38.537Z,95413.50
2024-04-09T06:31:40.370Z,95416.06
2024-04-09T06:34:43.749Z,95410.75
2024-04-09T06:37:45.834Z,95417.50
2024-04-09T06:40:55.131Z,95420.28
2024-04-09T06:43:57.012Z,95414.56
2024-04-09T06:46:59.505Z,95402.59
2024-04-09T06:50:06.022Z,95397.25
2024-04-09T06:53:08.139Z,95410.00
2024-04-09T06:56:11.399Z,95414.16
2024-04-09T06:59:13.330Z,95403.38
2024-04-09T07:02:15.183Z,95396.47
2024-04-09T07:05:17.057Z,95400.13
2024-04-09T07:08:18.847Z,95394.78
2024-04-09T07:11:23.086Z,95400.53
2024-04-09T07:14:24.974Z,95392.72
2024-04-09T07:17:27.228Z,95377.00
2024-04-09T07:20:29.479Z,95402.28
2024-04-09T07:23:31.302Z,95397.31
2024-04-09T07:26:33.484Z,95394.66
2024-04-09T07:29:35.794Z,95401.19
2024-04-09T07:32:37.670Z,95395.25
2024-04-09T07:39:55.353Z,95386.63
2024-04-09T07:42:57.618Z,95388.19
2024-04-09T07:45:59.812Z,95389.97
2024-04-09T07:49:01.955Z,95390.66
2024-04-09T07:52:05.003Z,95387.06
2024-04-09T07:55:09.434Z,95367.03
2024-04-09T07:58:11.822Z,95381.13
2024-04-09T08:01:13.922Z,95375.31
2024-04-09T08:04:16.295Z,95368.56
2024-04-09T08:07:18.505Z,95365.50
2024-04-09T08:10:21.476Z,95361.13
2024-04-09T08:13:23.482Z,95356.75
2024-04-09T08:16:25.386Z,95355.03
2024-04-09T08:19:29.503Z,95350.16
2024-04-09T08:22:31.422Z,95349.09
2024-04-09T08:25:33.374Z,95347.41
2024-04-09T08:28:35.203Z,95344.72
2024-04-09T08:31:37.371Z,95347.56
2024-04-09T08:34:39.255Z,95349.03
2024-04-09T08:37:46.366Z,95346.06
2024-04-09T08:40:48.840Z,95331.91
2024-04-09T08:43:51.283Z,95288.56
2024-04-09T08:46:55.496Z,95336.53
2024-04-09T08:50:01.632Z,95330.41
2024-04-09T08:53:05.568Z,95323.47
2024-04-09T08:56:07.901Z,95321.28
2024-04-09T08:59:09.712Z,95314.06
2024-04-09T09:02:16.018Z,95304.50
2024-04-09T09:05:19.151Z,95296.16
2024-04-09T09:08:21.164Z,95307.38
2024-04-09T09:11:24.919Z,95307.53
2024-04-09T09:14:26.720Z,95286.94
2024-04-09T09:17:31.237Z,95289.63
2024-04-09T09:20:33.106Z,95279.41
2024-04-09T09:23:35.414Z,95270.13
2024-04-09T09:26:37.276Z,95257.88
2024-04-09T09:29:39.110Z,95269.84
2024-04-09T09:32:44.714Z,95266.25
2024-04-09T09:35:51.505Z,95260.59
2024-04-09T09:38:54.579Z,95259.19
2024-04-09T09:41:59.004Z,95265.31
2024-04-09T09:45:04.650Z,95259.03
2024-04-09T09:48:08.578Z,95257.91
2024-04-09T09:51:11.592Z,95258.41
2024-04-09T09:54:13.480Z,95236.19
2024-04-09T09:57:23.293Z,95248.81
2024-04-09T10:00:28.385Z,95235.75
2024-04-09T10:03:31.781Z,95237.63
2024-04-09T10:06:33.852Z,95233.72
2024-04-09T10:09:51.936Z,95225.69
2024-04-09T10:13:00.411Z,95209.16
2024-04-09T10:16:02.660Z,95200.50
2024-04-09T10:19:06.596Z,95212.47
2024-04-09T10:22:08.624Z,95200.50
2024-04-09T10:25:18.758Z,95210.25
2024-04-09T10:28:35.911Z,95203.50
2024-04-09T10:31:45.425Z,95202.41
2024-04-09T10:34:47.329Z,95201.63
2024-04-09T10:37:53.651Z,95190.13
2024-04-09T10:40:56.508Z,95196.09
2024-04-09T10:43:58.345Z,95173.28
2024-04-09T10:47:00.261Z,95175.66
2024-04-09T10:50:04.431Z,95173.28
2024-04-09T10:53:06.445Z,95174.72
2024-04-09T10:56:09.183Z,95160.22
2024-04-09T10:59:15.455Z,95172.34
2024-04-09T11:02:18.384Z,95169.81
2024-04-09T11:05:20.370Z,95168.22
2024-04-09T11:08:32.374Z,95159.75
2024-04-09T11:11:36.267Z,95155.19
2024-04-09T11:14:41.816Z,95147.16
2024-04-09T11:17:45.092Z,95150.75
2024-04-09T11:20:53.738Z,95143.81
2024-04-09T11:23:57.246Z,95146.19
2024-04-09T11:26:59.217Z,95143.34
2024-04-09T11:30:01.175Z,95134.22
2024-04-09T11:33:05.104Z,95130.19
2024-04-09T11:36:17.403Z,95120.78
2024-04-09T11:39:26.876Z,95120.28
2024-04-09T11:42:28.876Z,95114.03
2024-04-09T11:45:32.284Z,95097.19
2024-04-09T11:48:34.410Z,95112.28
2024-04-09T11:51:36.606Z,95113.09
2024-04-09T11:54:38.469Z,95107.22
2024-04-09T11:57:44.855Z,95101.09
2024-04-09T12:00:46.869Z,95097.31
2024-04-09T12:03:48.969Z,95096.38
2024-04-09T12:06:50.961Z,95086.75
2024-04-09T12:09:52.889Z,95083.66
2024-04-09T12:12:54.797Z,95083.66
2024-04-09T12:15:56.681Z,95069.81
2024-04-09T12:18:58.691Z,95056.31
2024-04-09T12:22:01.183Z,95075.16
2024-04-09T12:25:03.221Z,95042.28
2024-04-09T12:28:05.340Z,95066.19
2024-04-09T12:31:07.437Z,95055.53
2024-04-09T12:34:09.457Z,95053.94
2024-04-09T12:37:11.759Z,95038.72
2024-04-09T12:40:13.989Z,95048.16
2024-04-09T12:43:15.828Z,95044.69
2024-04-09T12:46:17.813Z,95037.63
2024-04-09T12:49:35.302Z,95026.31
2024-04-09T12:52:46.477Z,95034.31
2024-04-09T12:55:49.415Z,95021.56
2024-04-09T12:58:51.800Z,95033.06
2024-04-09T13:01:53.858Z,95027.72
2024-04-09T13:04:57.015Z,95017.38
2024-04-09T13:07:58.918Z,95018.16
2024-04-09T13:11:00.928Z,95015.50
2024-04-09T13:14:03.007Z,95012.03
2024-04-09T13:17:08.296Z,94997.91
2024-04-09T13:20:10.891Z,94999.78
2024-04-09T13:23:12.724Z,94993.97
2024-04-09T13:26:14.763Z,94989.91
2024-04-09T13:29:16.748Z,94996.34
2024-04-09T13:32:20.939Z,94998.81
2024-04-09T13:35:23.008Z,94996.00
2024-04-09T13:38:25.836Z,94995.22
2024-04-09T13:41:28.019Z,94974.19
2024-04-09T13:44:30.698Z,94969.75
2024-04-09T13:47:32.604Z,94969.28
2024-04-09T13:50:35.454Z,94994.13
2024-04-09T13:53:37.297Z,94986.59
2024-04-09T13:56:39.558Z,94982.66
2024-04-09T13:59:42.142Z,94962.53
2024-04-09T14:02:44.923Z,94986.91
2024-04-09T14:05:47.310Z,94989.56
2024-04-09T14:08:50.157Z,94984.22
2024-04-09T14:11:53.771Z,94975.44
2024-04-09T14:14:56.290Z,94978.09
2024-04-09T14:17:58.470Z,94963.34
2024-04-09T14:21:06.390Z,94973.56
2024-04-09T14:24:08.465Z,94970.09
2024-04-09T14:27:10.345Z,94940.56
2024-04-09T14:30:12.422Z,94961.00
2024-04-09T14:33:14.662Z,94963.66
2024-04-09T14:36:16.707Z,94956.75
2024-04-09T14:39:18.521Z,94935.88
2024-04-09T14:42:20.634Z,94954.88
2024-04-09T14:45:23.762Z,94955.19
2024-04-09T14:48:25.840Z,94954.41
2024-04-09T14:51:27.740Z,94948.28
2024-04-09T14:54:29.606Z,94948.44
2024-04-09T14:57:31.416Z,94949.72
2024-04-09T15:00:37.377Z,94946.75
2024-04-09T15:03:39.290Z,94924.59
2024-04-09T15:06:41.825Z,94945.16
2024-04-09T15:09:45.541Z,94943.91
2024-04-09T15:12:47.319Z,94943.31
2024-04-09T15:15:49.325Z,94950.03
2024-04-09T15:18:51.133Z,94947.53
2024-04-09T15:21:53.000Z,94958.69
2024-04-09T15:24:54.784Z,94950.97
2024-04-09T15:27:57.983Z,94947.03
2024-04-09T15:31:01.507Z,94955.22
2024-04-09T15:34:03.427Z,94952.09
2024-04-09T15:37:05.365Z,94946.75
2024-04-09T15:40:08.382Z,94949.56
2024-04-09T15:43:10.183Z,94949.09
2024-04-09T15:46:12.088Z,94911.38
2024-04-09T15:49:16.387Z,94952.69
2024-04-09T15:52:19.284Z,94955.34
2024-04-09T15:55:21.021Z,94967.44
2024-04-09T15:58:22.834Z,94937.44
2024-04-09T16:01:28.114Z,94950.97
2024-04-09T16:04:31.203Z,94939.50
2024-04-09T16:07:33.019Z,94955.50
2024-04-09T16:10:34.928Z,94955.81
2024-04-09T16:13:43.303Z,94956.91
2024-04-09T16:16:50.978Z,94968.69
2024-04-09T16:19:53.437Z,94968.22
2024-04-09T16:22:56.953Z,94967.75
2024-04-09T16:26:06.913Z,94966.97
2024-04-09T16:29:08.811Z,94969.91
2024-04-09T16:32:11.505Z,94975.56
2024-04-09T16:35:14.116Z,94973.22
2024-04-09T16:38:16.601Z,94974.31
2024-04-09T16:41:19.391Z,94982.00
2024-04-09T16:44:21.484Z,94983.41
2024-04-09T16:47:23.479Z,94938.72
2024-04-09T16:50:25.621Z,94931.19
2024-04-09T16:53:27.722Z,94963.81
2024-04-09T16:56:29.686Z,94991.56
2024-04-09T16:59:32.671Z,94991.97
2024-04-09T17:02:34.794Z,94999.94
2024-04-09T17:05:36.960Z,94998.72
2024-04-09T17:08:40.053Z,95001.84
2024-04-09T17:11:42.094Z,95010.50
2024-04-09T17:14:44.395Z,95003.59
2024-04-09T17:17:47.001Z,94975.50
2024-04-09T17:20:49.263Z,95017.03
2024-04-09T17:23:51.088Z,95024.28
2024-04-09T17:26:57.046Z,95040.28
2024-04-09T17:29:59.042Z,95012.16
2024-04-09T17:33:02.413Z,95007.91
2024-04-09T17:36:05.527Z,95009.44
2024-04-09T17:39:09.483Z,94905.22
2024-04-09T17:42:20.338Z,95006.66
2024-04-09T17:45:24.918Z,95049.09
2024-04-09T17:48:28.208Z,94901.94
2024-04-09T17:51:30.193Z,94985.84
2024-04-09T17:54:32.804Z,94845.50
2024-04-09T17:57:35.402Z,94976.44
2024-04-09T18:00:37.334Z,94797.47
2024-04-09T18:03:42.462Z,95056.97
2024-04-09T18:06:44.458Z,95033.97
2024-04-09T18:09:48.906Z,95063.88
2024-04-09T18:12:54.931Z,94995.78
2024-04-09T18:15:58.860Z,95066.19
2024-04-09T18:19:01.078Z,95045.91
2024-04-09T18:22:06.843Z,95062.38
2024-04-09T18:25:08.674Z,95081.06
2024-04-09T18:28:10.686Z,95087.03
2024-04-09T18:31:12.643Z,95089.22
2024-04-09T18:34:16.815Z,95090.31
2024-04-09T18:37:19.302Z,95091.09
2024-04-09T18:40:21.074Z,95077.53
2024-04-09T18:43:22.889Z,95090.25
2024-04-09T18:46:25.964Z,95100.75
2024-04-09T18:49:27.912Z,95103.75
2024-04-09T18:52:29.743Z,95104.84
2024-04-09T18:55:31.610Z,95104.94
2024-04-09T18:58:33.458Z,95093.03
2024-04-09T19:01:36.628Z,95036.97
2024-04-09T19:04:38.646Z,95100.81
2024-04-09T19:07:40.645Z,95080.09
2024-04-09T19:10:44.831Z,95103.19
2024-04-09T19:13:47.245Z,95106.94
2024-04-09T19:16:49.314Z,95107.56
2024-04-09T19:19:52.489Z,95106.47
2024-04-09T19:22:55.947Z,95110.59
2024-04-09T19:25:58.234Z,95091.69
2024-04-09T19:29:00.750Z,95122.25
2024-04-09T19:32:07.959Z,95116.91
2024-04-09T19:35:10.417Z,95119.56
2024-04-09T19:38:12.761Z,95105.69
2024-04-09T19:41:15.481Z,95125.97
2024-04-09T19:44:19.593Z,95115.13
2024-04-09T19:47:21.993Z,95094.50
2024-04-09T19:50:23.944Z,95128.16
2024-04-09T19:53:35.544Z,95128.16
2024-04-09T19:56:47.968Z,95125.81
2024-04-09T19:59:51.349Z,95127.50
2024-04-09T20:02:53.410Z,95123.94
2024-04-09T20:05:55.416Z,95139.16
2024-04-09T20:08:57.306Z,95120.38
2024-04-09T20:11:59.444Z,95140.97
2024-04-09T20:15:01.501Z,95135.94
2024-04-09T20:18:03.682Z,95135.47
2024-04-09T20:21:05.725Z,95144.84
2024-04-09T20:24:08.036Z,95126.59
2024-04-09T20:27:10.024Z,95141.50
2024-04-09T20:30:12.892Z,95129.06
2024-04-09T20:33:14.800Z,95142.88
2024-04-09T20:36:17.162Z,95141.28
2024-04-09T20:39:25.335Z,95146.13
2024-04-09T20:42:27.750Z,95149.38
2024-04-09T20:45:29.570Z,95147.03
2024-04-09T20:48:31.610Z,95146.25
2024-04-09T20:51:33.732Z,95147.81
2024-04-09T20:54:35.608Z,95153.16
2024-04-09T20:57:37.565Z,95150.47
2024-04-09T21:00:40.482Z,95157.69
2024-04-09T21:03:43.477Z,95158.78
2024-04-09T21:06:45.427Z,95156.13
2024-04-09T21:09:47.301Z,95150.25
2024-04-09T21:12:49.488Z,95149.75
2024-04-09T21:15:51.529Z,95156.66
2024-04-09T21:18:53.640Z,95161.69
2024-04-09T21:21:55.956Z,95160.91
2024-04-09T21:24:57.776Z,95168.91
2024-04-09T21:27:59.541Z,95168.91
2024-04-09T21:31:01.320Z,95169.69
2024-04-09T21:34:03.840Z,95171.06
2024-04-09T21:37:06.040Z,95159.38
2024-04-09T21:40:11.646Z,95181.25
2024-04-09T21:43:13.482Z,95176.69
2024-04-09T21:46:15.404Z,95179.66
2024-04-09T21:49:17.240Z,95171.97
2024-04-09T21:52:19.222Z,95174.94
2024-04-09T21:55:20.975Z,95172.59
2024-04-09T21:58:23.884Z,95164.41
2024-04-09T22:01:25.757Z,95170.22
2024-04-09T22:04:27.729Z,95167.88
2024-04-09T22:07:29.577Z,95161.44
2024-04-09T22:10:31.469Z,95167.06
2024-04-09T22:13:33.337Z,95170.84
2024-04-09T22:16:35.219Z,95167.94
2024-04-09T22:19:36.984Z,95168.47
2024-04-09T22:22:39.162Z,95163.13
2024-04-09T22:25:41.518Z,95159.97
2024-04-09T22:28:43.338Z,95159.19
2024-04-09T22:31:45.132Z,95159.97
2024-04-09T22:34:47.025Z,95163.72
2024-04-09T22:37:52.483Z,95079.50
2024-04-09T22:40:55.423Z,95152.84
2024-04-09T22:43:57.286Z,95152.06
2024-04-09T22:46:59.227Z,95156.91
2024-04-09T22:50:01.762Z,95160.34
2024-04-09T22:53:03.836Z,95136.13
2024-04-09T22:56:06.572Z,95142.63
2024-04-09T22:59:08.668Z,95145.59
2024-04-09T23:02:10.901Z,95138.09
2024-04-09T23:05:13.072Z,95133.53
2024-04-09T23:08:15.149Z,95132.44
2024-04-09T23:11:17.115Z,95134.63
2024-04-09T23:14:19.236Z,95108.22
2024-04-09T23:17:21.626Z,95097.22
2024-04-09T23:20:23.619Z,95122.88
2024-04-09T23:23:26.745Z,95129.59
2024-04-09T23:26:28.767Z,95118.47
2024-04-09T23:29:30.976Z,95127.25
2024-04-09T23:32:33.115Z,95133.16
2024-04-09T23:35:35.088Z,95126.25
2024-04-09T23:38:39.016Z,95132.38
2024-04-09T23:41:40.879Z,95124.97
2024-04-09T23:44:45.452Z,95128.13
2024-04-09T23:47:48.379Z,95123.88
2024-04-09T23:51:00.499Z,95123.88
2024-04-09T23:54:02.241Z,95122.31
2024-04-09T23:57:04.417Z,95125.28
